Time;durP1;ratioP1;P1;durP2;ratioP2;P2;SDS_P1;SDS_P2;PMS_P1;PMS_P2;Temp;Humidity;BMP_temperature;BMP_pressure;BME280_temperature;BME280_humidity;BME280_pressure;Samples;Min_cycle;Max_cycle;Signal;HPM_P1;HPM_P2
2022/05/08 00:01:35;;;;;;;18.10;17.20;;;;;;;-141.02;100.00;55844.97;5123332;27;20202;-76
2022/05/08 00:04:03;;;;;;;17.87;16.97;;;;;;;-141.02;100.00;55844.97;5122797;27;20750;-77
2022/05/08 00:06:30;;;;;;;17.70;16.90;;;;;;;-141.02;100.00;55844.97;5121885;27;20604;-78
2022/05/08 00:08:58;;;;;;;17.60;16.80;;;;;;;-141.02;100.00;55844.97;5128783;27;20262;-78
2022/05/08 00:11:26;;;;;;;17.10;16.30;;;;;;;-141.02;100.00;55844.97;5111702;28;20202;-79
2022/05/08 00:13:53;;;;;;;17.10;16.30;;;;;;;-141.02;100.00;55844.97;5112753;28;20242;-80
2022/05/08 00:16:20;;;;;;;17.20;16.40;;;;;;;-141.02;100.00;55844.97;5112700;28;20569;-79
2022/05/08 00:18:47;;;;;;;17.60;16.80;;;;;;;-141.02;100.00;55844.97;5112754;28;20201;-76
2022/05/08 00:21:14;;;;;;;17.23;16.42;;;;;;;-141.02;100.00;55844.97;5122152;27;20201;-77
2022/05/08 00:23:41;;;;;;;17.40;16.60;;;;;;;-141.02;100.00;55844.97;5133190;27;20224;-78
2022/05/08 00:26:08;;;;;;;17.60;16.80;;;;;;;-141.02;100.00;55844.97;5111171;28;20252;-77
2022/05/08 00:28:38;;;;;;;17.73;16.90;;;;;;;-141.02;100.00;55844.97;5112595;28;20189;-78
2022/05/08 00:31:05;;;;;;;17.63;16.83;;;;;;;-141.02;100.00;55844.97;5112175;28;20274;-76
2022/05/08 00:33:32;;;;;;;17.17;16.37;;;;;;;-141.02;100.00;55844.97;5112667;28;20195;-79
2022/05/08 00:35:59;;;;;;;17.53;16.73;;;;;;;-141.02;100.00;55844.97;5113766;28;20224;-77
2022/05/08 00:38:26;;;;;;;17.67;16.87;;;;;;;-141.02;100.00;55844.97;5116826;28;20189;-80
2022/05/08 00:40:54;;;;;;;17.37;16.57;;;;;;;-141.02;100.00;55844.97;5120072;27;20276;-76
2022/05/08 00:43:32;;;;;;;18.00;17.10;;;;;;;-141.02;100.00;55844.97;5124232;27;20195;-79
2022/05/08 00:46:02;;;;;;;17.77;16.97;;;;;;;-141.02;100.00;55844.97;5126289;27;20260;-76
2022/05/08 00:48:29;;;;;;;17.53;16.73;;;;;;;-141.02;100.00;55844.97;5131667;27;20197;-77
2022/05/08 00:50:57;;;;;;;17.80;17.00;;;;;;;-141.02;100.00;55844.97;5116638;28;20193;-76
2022/05/08 00:53:27;;;;;;;18.27;17.38;;;;;;;-141.02;100.00;55844.97;5116629;28;20280;-76
2022/05/08 00:55:56;;;;;;;18.10;17.20;;;;;;;-141.02;100.00;55844.97;5128967;27;20681;-84
2022/05/08 00:58:24;;;;;;;17.70;16.90;;;;;;;-141.02;100.00;55844.97;5122096;27;20204;-79
2022/05/08 01:00:51;;;;;;;17.60;16.80;;;;;;;-141.02;100.00;55844.97;5120474;27;20199;-80
2022/05/08 01:03:19;;;;;;;18.03;17.13;;;;;;;-141.02;100.00;55844.97;5132257;27;20632;-78
2022/05/08 01:05:48;;;;;;;18.50;17.60;;;;;;;-141.02;100.00;55844.97;5116404;27;20229;-77
2022/05/08 01:08:15;;;;;;;17.30;16.50;;;;;;;-141.02;100.00;55844.97;5135268;27;20291;-78
2022/05/08 01:10:42;;;;;;;17.47;16.67;;;;;;;-141.02;100.00;55844.97;5120645;27;20200;-77
2022/05/08 01:13:09;;;;;;;17.73;16.93;;;;;;;-141.02;100.00;55844.97;5120174;27;20229;-75
2022/05/08 01:15:43;;;;;;;18.02;17.23;;;;;;;-141.02;100.00;55844.97;5117887;27;20195;-81
2022/05/08 01:18:11;;;;;;;17.60;16.80;;;;;;;-141.02;100.00;55844.97;5136654;27;20264;-77
2022/05/08 01:20:40;;;;;;;17.97;17.17;;;;;;;-141.02;100.00;55844.97;5134957;27;20248;-79
2022/05/08 01:23:10;;;;;;;17.87;17.03;;;;;;;-141.02;100.00;55844.97;5125225;27;20284;-79
2022/05/08 01:25:47;;;;;;;17.25;16.45;;;;;;;-141.02;100.00;55844.97;5121890;27;20216;-75
2022/05/08 01:28:14;;;;;;;17.30;16.50;;;;;;;-141.02;100.00;55844.97;5116601;27;20193;-79
2022/05/08 01:30:42;;;;;;;17.63;16.83;;;;;;;-141.02;100.00;55844.97;5115511;28;20733;-76
2022/05/08 01:33:09;;;;;;;17.80;17.00;;;;;;;-141.02;100.00;55844.97;5125361;27;20284;-80
2022/05/08 01:35:36;;;;;;;17.47;16.67;;;;;;;-141.02;100.00;55844.97;5115722;28;20231;-78
2022/05/08 01:38:04;;;;;;;17.20;16.40;;;;;;;-141.02;100.00;55844.97;5115696;28;20200;-75
2022/05/08 01:40:32;;;;;;;16.93;16.23;;;;;;;-141.02;100.00;55844.97;5119056;27;20253;-77
2022/05/08 01:43:00;;;;;;;17.50;16.70;;;;;;;-141.02;100.00;55844.97;5132664;27;20666;-76
2022/05/08 01:45:27;;;;;;;17.60;16.80;;;;;;;-141.02;100.00;55844.97;5134655;27;20216;-79
2022/05/08 01:50:39;;;;;;;17.40;16.60;;;;;;;-141.02;100.00;55844.97;5113974;27;20200;-81
2022/05/08 01:53:06;;;;;;;17.20;16.40;;;;;;;-141.02;100.00;55844.97;5115325;28;20205;-78
2022/05/08 01:55:36;;;;;;;17.43;16.63;;;;;;;-141.02;100.00;55844.97;5118405;27;20189;-78
2022/05/08 01:58:03;;;;;;;17.87;17.07;;;;;;;-141.02;100.00;55844.97;5117357;27;20204;-76
2022/05/08 02:00:32;;;;;;;17.63;16.83;;;;;;;-141.02;100.00;55844.97;5116501;27;20197;-76
2022/05/08 02:03:01;;;;;;;17.37;16.57;;;;;;;-141.02;100.00;55844.97;5113337;28;20295;-76
2022/05/08 02:05:29;;;;;;;17.70;16.90;;;;;;;-141.02;100.00;55844.97;5129932;27;20220;-75
2022/05/08 02:07:56;;;;;;;17.33;16.53;;;;;;;-141.02;100.00;55844.97;5133464;27;20196;-75
2022/05/08 02:10:24;;;;;;;17.30;16.50;;;;;;;-141.02;100.00;55844.97;5119432;27;20197;-77
2022/05/08 02:12:52;;;;;;;17.43;16.63;;;;;;;-141.02;100.00;55844.97;5135348;27;20199;-78
2022/05/08 02:15:20;;;;;;;17.37;16.57;;;;;;;-141.02;100.00;55844.97;5124990;27;20203;-75
2022/05/08 02:17:47;;;;;;;17.23;16.43;;;;;;;-141.02;100.00;55844.97;5126503;27;20280;-74
2022/05/08 02:20:14;;;;;;;17.30;16.50;;;;;;;-141.02;100.00;55844.97;5121932;27;20577;-76
2022/05/08 02:22:41;;;;;;;17.37;16.57;;;;;;;-141.02;100.00;55844.97;5123812;27;20284;-75
2022/05/08 02:25:09;;;;;;;17.27;16.47;;;;;;;-141.02;100.00;55844.97;5124165;27;20702;-77
2022/05/08 02:27:38;;;;;;;17.87;17.07;;;;;;;-141.02;100.00;55844.97;5127540;27;20226;-77
2022/05/08 02:30:09;;;;;;;17.00;16.20;;;;;;;-141.02;100.00;55844.97;5117080;27;20225;-77
2022/05/08 02:32:36;;;;;;;17.60;16.80;;;;;;;-141.02;100.00;55844.97;5115074;28;20197;-79
2022/05/08 02:35:03;;;;;;;17.57;16.77;;;;;;;-141.02;100.00;55844.97;5114182;28;20283;-78
2022/05/08 02:37:30;;;;;;;17.30;16.50;;;;;;;-141.02;100.00;55844.97;5114535;28;20197;-77
2022/05/08 02:39:57;;;;;;;17.40;16.60;;;;;;;-141.02;100.00;55844.97;5114739;27;20292;-78
2022/05/08 02:42:25;;;;;;;18.23;17.33;;;;;;;-141.02;100.00;55844.97;5119509;27;20279;-77
2022/05/08 02:44:52;;;;;;;16.97;16.20;;;;;;;-141.02;100.00;55844.97;5132554;27;20196;-76
2022/05/08 02:47:20;;;;;;;17.43;16.63;;;;;;;-141.02;100.00;55844.97;5127629;27;20228;-74
2022/05/08 02:49:47;;;;;;;17.63;16.83;;;;;;;-141.02;100.00;55844.97;5113283;28;20291;-77
2022/05/08 02:52:14;;;;;;;17.93;17.03;;;;;;;-141.02;100.00;55844.97;5114014;28;20280;-78
2022/05/08 02:54:41;;;;;;;18.47;17.57;;;;;;;-141.02;100.00;55844.97;5111932;28;20292;-77
2022/05/08 02:59:52;;;;;;;18.10;17.20;;;;;;;-141.02;100.00;55844.97;5127429;27;20281;-77
2022/05/08 03:02:21;;;;;;;18.13;17.23;;;;;;;-141.02;100.00;55844.97;5124883;27;20291;-75
2022/05/08 03:04:48;;;;;;;17.23;16.43;;;;;;;-141.02;100.00;55844.97;5129592;27;20231;-77
2022/05/08 03:07:15;;;;;;;18.50;17.60;;;;;;;-141.02;100.00;55844.97;5134032;27;20262;-75
2022/05/08 03:09:42;;;;;;;17.90;17.00;;;;;;;-141.02;100.00;55844.97;5133218;27;20253;-75
2022/05/08 03:12:10;;;;;;;17.90;17.00;;;;;;;-141.02;100.00;55844.97;5113681;27;20224;-78
2022/05/08 03:14:38;;;;;;;17.20;16.40;;;;;;;-141.02;100.00;55844.97;5124770;27;20193;-76
2022/05/08 03:17:06;;;;;;;17.77;16.87;;;;;;;-141.02;100.00;55844.97;5123506;27;20555;-75
2022/05/08 03:19:35;;;;;;;17.80;17.00;;;;;;;-141.02;100.00;55844.97;5113499;28;20190;-77
2022/05/08 03:22:02;;;;;;;17.20;16.40;;;;;;;-141.02;100.00;55844.97;5113643;28;20218;-76
2022/05/08 03:24:29;;;;;;;17.50;16.60;;;;;;;-141.02;100.00;55844.97;5111253;28;20682;-77
2022/05/08 03:26:57;;;;;;;18.10;17.20;;;;;;;-141.02;100.00;55844.97;5132549;27;20255;-77
2022/05/08 03:29:26;;;;;;;17.43;16.63;;;;;;;-141.02;100.00;55844.97;5130366;27;20196;-76
2022/05/08 03:31:53;;;;;;;17.00;16.20;;;;;;;-141.02;100.00;55844.97;5129724;27;20697;-75
2022/05/08 03:34:20;;;;;;;17.00;16.20;;;;;;;-141.02;100.00;55844.97;5120537;27;20193;-79
2022/05/08 03:36:49;;;;;;;17.60;16.80;;;;;;;-141.02;100.00;55844.97;5112977;28;20207;-75
2022/05/08 03:39:16;;;;;;;17.20;16.40;;;;;;;-141.02;100.00;55844.97;5112911;28;20577;-77
2022/05/08 03:41:43;;;;;;;17.30;16.50;;;;;;;-141.02;100.00;55844.97;5112981;28;20243;-75
2022/05/08 03:44:10;;;;;;;17.33;16.52;;;;;;;-141.02;100.00;55844.97;5112954;28;20228;-77
2022/05/08 03:46:37;;;;;;;17.27;16.47;;;;;;;-141.02;100.00;55844.97;5112084;28;20264;-77
2022/05/08 03:49:04;;;;;;;17.55;16.75;;;;;;;-141.02;100.00;55844.97;5125853;27;20281;-76
2022/05/08 03:51:31;;;;;;;17.60;16.80;;;;;;;-141.02;100.00;55844.97;5133387;27;20196;-76
2022/05/08 03:53:59;;;;;;;17.10;16.30;;;;;;;-141.02;100.00;55844.97;5132027;27;20197;-76
2022/05/08 03:56:27;;;;;;;17.58;16.77;;;;;;;-141.02;100.00;55844.97;5116630;27;20280;-77
2022/05/08 03:58:55;;;;;;;18.00;17.10;;;;;;;-141.02;100.00;55844.97;5112951;27;20203;-77
2022/05/08 04:01:22;;;;;;;17.58;16.77;;;;;;;-141.02;100.00;55844.97;5117762;27;20283;-76
2022/05/08 04:03:49;;;;;;;17.90;17.00;;;;;;;-141.02;100.00;55844.97;5126953;27;20676;-76
2022/05/08 04:06:16;;;;;;;17.65;16.85;;;;;;;-141.02;100.00;55844.97;5111085;27;20320;-76
2022/05/08 04:08:43;;;;;;;17.83;16.92;;;;;;;-141.02;100.00;55844.97;5124725;27;20201;-77
2022/05/08 04:11:11;;;;;;;17.60;16.80;;;;;;;-141.02;100.00;55844.97;5123205;27;20658;-78
2022/05/08 04:13:38;;;;;;;17.75;16.92;;;;;;;-141.02;100.00;55844.97;5126701;27;20241;-81
2022/05/08 04:16:17;;;;;;;18.15;17.25;;;;;;;-141.02;100.00;55844.97;5113678;27;20201;-79
2022/05/08 04:18:46;;;;;;;17.90;17.00;;;;;;;-141.02;100.00;55844.97;5129577;27;20578;-76
2022/05/08 04:21:13;;;;;;;17.33;16.52;;;;;;;-141.02;100.00;55844.97;5117571;28;20201;-78
2022/05/08 04:26:28;;;;;;;17.23;16.42;;;;;;;-141.02;100.00;55844.97;5122924;28;20276;-77
2022/05/08 04:28:55;;;;;;;17.63;16.83;;;;;;;-141.02;100.00;55844.97;5121406;27;20208;-77
2022/05/08 04:31:24;;;;;;;17.30;16.50;;;;;;;-141.02;100.00;55844.97;5122165;28;20256;-76
2022/05/08 04:33:51;;;;;;;17.83;16.92;;;;;;;-141.02;100.00;55844.97;5127744;28;20201;-77
2022/05/08 04:36:18;;;;;;;17.48;16.67;;;;;;;-141.02;100.00;55844.97;5130089;28;20570;-75
2022/05/08 04:38:45;;;;;;;17.45;16.65;;;;;;;-141.02;100.00;55844.97;5131551;28;20196;-77
2022/05/08 04:41:12;;;;;;;17.38;16.58;;;;;;;-141.02;100.00;55844.97;5119890;28;20197;-80
2022/05/08 04:43:41;;;;;;;17.13;16.33;;;;;;;-141.02;100.00;55844.97;5127027;28;20227;-81
2022/05/08 04:46:09;;;;;;;17.60;16.80;;;;;;;-141.02;100.00;55844.97;5130363;28;20224;-79
2022/05/08 04:48:37;;;;;;;17.27;16.48;;;;;;;-141.02;100.00;55844.97;5118111;28;20266;-76
2022/05/08 04:51:05;;;;;;;16.70;16.00;;;;;;;-141.02;100.00;55844.97;5110534;28;20273;-75
2022/05/08 04:53:32;;;;;;;17.13;16.33;;;;;;;-141.02;100.00;55844.97;5117946;28;20242;-75
2022/05/08 04:55:59;;;;;;;17.45;16.65;;;;;;;-141.02;100.00;55844.97;5115954;27;20201;-76
2022/05/08 04:58:29;;;;;;;16.75;16.02;;;;;;;-141.02;100.00;55844.97;5130173;28;20208;-77
2022/05/08 05:00:58;;;;;;;16.38;15.68;;;;;;;-141.02;100.00;55844.97;5117084;28;20275;-79
2022/05/08 05:03:26;;;;;;;16.38;15.68;;;;;;;-141.02;100.00;55844.97;5131431;27;20253;-76
2022/05/08 05:05:53;;;;;;;16.48;15.77;;;;;;;-141.02;100.00;55844.97;5122952;28;20197;-77
2022/05/08 05:08:20;;;;;;;17.10;16.30;;;;;;;-141.02;100.00;55844.97;5110086;28;20733;-75
2022/05/08 05:10:48;;;;;;;16.67;15.98;;;;;;;-141.02;100.00;55844.97;5111456;28;20193;-74
2022/05/08 05:13:15;;;;;;;16.98;16.17;;;;;;;-141.02;100.00;55844.97;5131123;28;20295;-77
2022/05/08 05:15:42;;;;;;;16.80;16.05;;;;;;;-141.02;100.00;55844.97;5127535;27;20629;-76
2022/05/08 05:18:11;;;;;;;16.90;16.10;;;;;;;-141.02;100.00;55844.97;5112019;28;20544;-75
2022/05/08 05:20:38;;;;;;;17.13;16.38;;;;;;;-141.02;100.00;55844.97;5112229;28;20253;-75
2022/05/08 05:23:06;;;;;;;16.48;15.77;;;;;;;-141.02;100.00;55844.97;5113363;28;20232;-75
2022/05/08 05:25:33;;;;;;;15.88;15.18;;;;;;;-141.02;100.00;55844.97;5115916;27;20246;-77
2022/05/08 05:28:00;;;;;;;16.42;15.73;;;;;;;-141.02;100.00;55844.97;5115887;28;20228;-78
2022/05/08 05:30:27;;;;;;;16.88;16.17;;;;;;;-141.02;100.00;55844.97;5116109;27;20240;-74
2022/05/08 05:32:54;;;;;;;16.75;16.05;;;;;;;-141.02;100.00;55844.97;5115539;28;20280;-75
2022/05/08 05:35:22;;;;;;;17.00;16.30;;;;;;;-141.02;100.00;55844.97;5116018;28;20324;-77
2022/05/08 05:37:49;;;;;;;17.10;16.40;;;;;;;-141.02;100.00;55844.97;5121565;27;20200;-83
2022/05/08 05:40:17;;;;;;;16.30;15.60;;;;;;;-141.02;100.00;55844.97;5115523;28;20662;-82
2022/05/08 05:42:44;;;;;;;16.35;15.65;;;;;;;-141.02;100.00;55844.97;5115767;27;20262;-76
2022/05/08 05:45:11;;;;;;;16.70;16.00;;;;;;;-141.02;100.00;55844.97;5131758;27;20216;-77
2022/05/08 05:47:53;;;;;;;16.20;15.50;;;;;;;-141.02;100.00;55844.97;5113858;27;20305;-76
2022/05/08 05:50:22;;;;;;;16.50;15.80;;;;;;;-141.02;100.00;55844.97;5111618;27;20194;-83
2022/05/08 05:52:50;;;;;;;16.05;15.35;;;;;;;-141.02;100.00;55844.97;5119226;27;20204;-83
2022/05/08 05:55:18;;;;;;;16.05;15.35;;;;;;;-141.02;100.00;55844.97;5113503;28;20201;-82
2022/05/08 05:57:45;;;;;;;16.23;15.52;;;;;;;-141.02;100.00;55844.97;5114883;28;20651;-80
2022/05/08 06:00:14;;;;;;;16.13;15.43;;;;;;;-141.02;100.00;55844.97;5114420;28;20201;-81
2022/05/08 06:02:43;;;;;;;15.82;15.15;;;;;;;-141.02;100.00;55844.97;5113021;28;20193;-76
2022/05/08 06:05:11;;;;;;;16.00;15.30;;;;;;;-141.02;100.00;55844.97;5114296;28;20567;-79
2022/05/08 06:07:40;;;;;;;16.10;15.40;;;;;;;-141.02;100.00;55844.97;5113976;28;20658;-78
2022/05/08 06:10:09;;;;;;;15.90;15.20;;;;;;;-141.02;100.00;55844.97;5128351;27;20597;-86
2022/05/08 06:12:36;;;;;;;15.68;15.07;;;;;;;-141.02;100.00;55844.97;5115469;27;20284;-82
2022/05/08 06:15:06;;;;;;;16.05;15.35;;;;;;;-141.02;100.00;55844.97;5130843;27;20279;-85
2022/05/08 06:17:33;;;;;;;15.50;14.90;;;;;;;-141.02;100.00;55844.97;5127299;27;20246;-81
2022/05/08 06:20:00;;;;;;;15.45;14.85;;;;;;;-141.02;100.00;55844.97;5123081;27;20208;-83
2022/05/08 06:22:27;;;;;;;15.68;15.07;;;;;;;-141.02;100.00;55844.97;5115417;28;20227;-88
2022/05/08 06:24:55;;;;;;;15.88;15.27;;;;;;;-141.02;100.00;55844.97;5115365;28;20189;-87
2022/05/08 06:27:25;;;;;;;15.55;14.95;;;;;;;-141.02;100.00;55844.97;5115182;28;20233;-84
2022/05/08 06:29:52;;;;;;;15.60;15.00;;;;;;;-141.02;100.00;55844.97;5112413;27;20236;-83
2022/05/08 06:32:19;;;;;;;16.20;15.50;;;;;;;-141.02;100.00;55844.97;5107642;27;20655;-75
2022/05/08 06:34:47;;;;;;;15.82;15.23;;;;;;;-141.02;100.00;55844.97;5129058;27;20283;-74
2022/05/08 06:37:14;;;;;;;16.05;15.45;;;;;;;-141.02;100.00;55844.97;5098817;28;20671;-80
2022/05/08 06:39:41;;;;;;;15.60;15.00;;;;;;;-141.02;100.00;55844.97;5113500;28;20300;-81
2022/05/08 06:42:10;;;;;;;15.73;15.13;;;;;;;-141.02;100.00;55844.97;5112033;27;20201;-73
2022/05/08 06:44:37;;;;;;;15.60;15.00;;;;;;;-141.02;100.00;55844.97;5106823;27;20201;-81
2022/05/08 06:47:05;;;;;;;16.25;15.65;;;;;;;-141.02;100.00;55844.97;5114109;28;20598;-83
2022/05/08 06:49:32;;;;;;;16.00;15.40;;;;;;;-141.02;100.00;55844.97;5114957;28;20254;-77
2022/05/08 06:51:59;;;;;;;15.77;15.18;;;;;;;-141.02;100.00;55844.97;5114824;28;20621;-79
2022/05/08 06:54:27;;;;;;;15.88;15.27;;;;;;;-141.02;100.00;55844.97;5115806;27;20197;-83
2022/05/08 06:56:55;;;;;;;16.00;15.40;;;;;;;-141.02;100.00;55844.97;5115947;28;20197;-84
2022/05/08 07:02:09;;;;;;;15.95;15.35;;;;;;;-141.02;100.00;55844.97;5114632;28;20212;-82
2022/05/08 07:04:36;;;;;;;15.40;14.80;;;;;;;-141.02;100.00;55844.97;5114239;28;20651;-85
2022/05/08 07:07:03;;;;;;;15.20;14.70;;;;;;;-141.02;100.00;55844.97;5113017;28;20649;-79
2022/05/08 07:09:30;;;;;;;15.00;14.50;;;;;;;-141.02;100.00;55844.97;5114802;27;20189;-85
2022/05/08 07:11:57;;;;;;;15.65;15.05;;;;;;;-141.02;100.00;55844.97;5122126;27;20608;-84
2022/05/08 07:14:25;;;;;;;15.45;14.85;;;;;;;-141.02;100.00;55844.97;5124737;27;20221;-83
2022/05/08 07:16:52;;;;;;;15.27;14.73;;;;;;;-141.02;100.00;55844.97;5113631;27;20244;-77
2022/05/08 07:19:20;;;;;;;15.70;15.10;;;;;;;-141.02;100.00;55844.97;5113575;28;20207;-79
2022/05/08 07:21:47;;;;;;;15.80;15.20;;;;;;;-141.02;100.00;55844.97;5114648;28;20197;-84
2022/05/08 07:24:14;;;;;;;15.65;15.05;;;;;;;-141.02;100.00;55844.97;5111799;28;20284;-74
2022/05/08 07:26:41;;;;;;;15.60;15.00;;;;;;;-141.02;100.00;55844.97;5114048;28;20649;-77
2022/05/08 07:29:08;;;;;;;14.98;14.48;;;;;;;-141.02;100.00;55844.97;5124509;27;20295;-79
2022/05/08 07:31:38;;;;;;;15.25;14.65;;;;;;;-141.02;100.00;55844.97;5134009;27;20282;-80
2022/05/08 07:36:49;;;;;;;15.55;14.95;;;;;;;-141.02;100.00;55844.97;5129026;27;20191;-81
2022/05/08 07:39:16;;;;;;;16.05;15.45;;;;;;;-141.02;100.00;55844.97;5123811;27;20261;-80
2022/05/08 07:41:43;;;;;;;15.52;14.93;;;;;;;-141.02;100.00;55844.97;5113095;28;20550;-83
2022/05/08 07:44:10;;;;;;;15.52;14.93;;;;;;;-141.02;100.00;55844.97;5112294;28;20254;-80
2022/05/08 07:46:38;;;;;;;15.45;14.85;;;;;;;-141.02;100.00;55844.97;5126028;27;20200;-83
2022/05/08 07:49:05;;;;;;;15.38;14.77;;;;;;;-141.02;100.00;55844.97;5122060;27;20730;-79
2022/05/08 07:51:32;;;;;;;15.48;14.88;;;;;;;-141.02;100.00;55844.97;5112652;28;20643;-82
2022/05/08 07:53:59;;;;;;;15.43;14.82;;;;;;;-141.02;100.00;55844.97;5113252;28;20633;-76
2022/05/08 07:56:28;;;;;;;15.55;14.95;;;;;;;-141.02;100.00;55844.97;5121002;27;20618;-77
2022/05/08 07:58:55;;;;;;;15.30;14.70;;;;;;;-141.02;100.00;55844.97;5118580;27;20306;-79
2022/05/08 08:01:22;;;;;;;15.27;14.68;;;;;;;-141.02;100.00;55844.97;5112882;28;20670;-79
2022/05/08 08:03:50;;;;;;;15.35;14.75;;;;;;;-141.02;100.00;55844.97;5120308;27;20197;-84
2022/05/08 08:06:17;;;;;;;15.90;15.30;;;;;;;-141.02;100.00;55844.97;5113163;28;20261;-79
2022/05/08 08:08:44;;;;;;;15.60;15.00;;;;;;;-141.02;100.00;55844.97;5112823;28;20225;-88
2022/05/08 08:11:13;;;;;;;15.70;15.10;;;;;;;-141.02;100.00;55844.97;5113062;28;20341;-80
2022/05/08 08:13:40;;;;;;;15.38;14.77;;;;;;;-141.02;100.00;55844.97;5113113;28;20254;-89
2022/05/08 08:16:08;;;;;;;15.40;14.80;;;;;;;-141.02;100.00;55844.97;5112898;28;20208;-79
2022/05/08 08:18:35;;;;;;;15.15;14.55;;;;;;;-141.02;100.00;55844.97;5114227;27;20261;-83
2022/05/08 08:21:05;;;;;;;15.20;14.60;;;;;;;-141.02;100.00;55844.97;5132613;27;20553;-79
2022/05/08 08:23:32;;;;;;;15.40;14.80;;;;;;;-141.02;100.00;55844.97;5133572;27;20297;-84
2022/05/08 08:25:59;;;;;;;14.80;14.30;;;;;;;-141.02;100.00;55844.97;5132998;27;20253;-83
2022/05/08 08:28:26;;;;;;;14.73;14.20;;;;;;;-141.02;100.00;55844.97;5133038;28;20223;-77
2022/05/08 08:30:53;;;;;;;15.20;14.60;;;;;;;-141.02;100.00;55844.97;5131579;28;20263;-84
2022/05/08 08:33:21;;;;;;;15.23;14.63;;;;;;;-141.02;100.00;55844.97;5111610;28;20271;-78
2022/05/08 08:35:48;;;;;;;15.32;14.73;;;;;;;-141.02;100.00;55844.97;5110876;28;20229;-84
2022/05/08 08:38:17;;;;;;;15.35;14.75;;;;;;;-141.02;100.00;55844.97;5112988;28;20259;-79
2022/05/08 08:40:48;;;;;;;15.18;14.57;;;;;;;-141.02;100.00;55844.97;5112506;28;20276;-82
2022/05/08 08:43:17;;;;;;;15.45;14.85;;;;;;;-141.02;100.00;55844.97;5110880;28;20197;-80
2022/05/08 08:48:31;;;;;;;15.32;14.73;;;;;;;-141.02;100.00;55844.97;5071315;28;20260;-80
2022/05/08 08:50:59;;;;;;;15.80;15.20;;;;;;;-141.02;100.00;55844.97;5092371;28;20200;-81
2022/05/08 08:53:29;;;;;;;15.70;15.10;;;;;;;-141.02;100.00;55844.97;5114259;28;20287;-86
2022/05/08 08:55:59;;;;;;;15.77;15.18;;;;;;;-141.02;100.00;55844.97;5132870;27;20192;-82
2022/05/08 08:58:26;;;;;;;15.65;15.05;;;;;;;-141.02;100.00;55844.97;5137375;27;20628;-76
2022/05/08 09:00:53;;;;;;;15.40;14.80;;;;;;;-141.02;100.00;55844.97;5136803;27;20199;-80
2022/05/08 09:03:25;;;;;;;15.60;15.00;;;;;;;-141.02;100.00;55844.97;5128321;27;20201;-77
2022/05/08 09:05:54;;;;;;;15.20;14.60;;;;;;;-141.02;100.00;55844.97;5114901;28;20245;-75
2022/05/08 09:08:30;;;;;;;15.27;14.68;;;;;;;-141.02;100.00;55844.97;5116369;28;20319;-75
2022/05/08 09:10:58;;;;;;;17.05;16.27;;;;;;;-141.02;100.00;55844.97;5114695;28;20310;-78
2022/05/08 09:13:26;;;;;;;15.73;15.02;;;;;;;-141.02;100.00;55844.97;5114422;27;20258;-80
2022/05/08 09:16:02;;;;;;;15.05;14.55;;;;;;;-141.02;100.00;55844.97;5107608;27;20273;-76
2022/05/08 09:18:30;;;;;;;15.15;14.55;;;;;;;-141.02;100.00;55844.97;5111511;27;20189;-79
2022/05/08 09:21:54;;;;;;;14.85;14.35;;;;;;;-141.02;100.00;55844.97;5118176;27;20245;-75
2022/05/08 09:23:46;;;;;;;15.40;14.80;;;;;;;-141.02;100.00;55844.97;5116491;28;20197;-78
2022/05/08 09:26:14;;;;;;;15.25;14.65;;;;;;;-141.02;100.00;55844.97;5116335;28;20224;-77
2022/05/08 09:28:43;;;;;;;14.98;14.38;;;;;;;-141.02;100.00;55844.97;5116208;28;20312;-77
2022/05/08 09:31:11;;;;;;;15.23;14.63;;;;;;;-141.02;100.00;55844.97;5114346;28;20282;-79
2022/05/08 09:33:39;;;;;;;15.50;14.90;;;;;;;-141.02;100.00;55844.97;5128667;27;20196;-77
2022/05/08 09:36:08;;;;;;;15.63;15.02;;;;;;;-141.02;100.00;55844.97;5125613;27;20247;-79
2022/05/08 09:38:48;;;;;;;15.85;15.25;;;;;;;-141.02;100.00;55844.97;5131656;27;20203;-78
2022/05/08 09:41:17;;;;;;;14.95;14.45;;;;;;;-141.02;100.00;55844.97;5136588;27;20631;-83
2022/05/08 09:43:44;;;;;;;14.95;14.45;;;;;;;-141.02;100.00;55844.97;5136201;27;20196;-78
2022/05/08 09:46:12;;;;;;;16.85;16.05;;;;;;;-141.02;100.00;55844.97;5131970;27;20651;-77
2022/05/08 09:48:39;;;;;;;15.50;14.90;;;;;;;-141.02;100.00;55844.97;5136107;27;20223;-77
2022/05/08 09:51:07;;;;;;;15.82;15.23;;;;;;;-141.02;100.00;55844.97;5125766;27;20193;-71
2022/05/08 09:53:36;;;;;;;15.38;14.77;;;;;;;-141.02;100.00;55844.97;5115450;28;20193;-73
2022/05/08 09:56:06;;;;;;;15.38;14.77;;;;;;;-141.02;100.00;55844.97;5115525;28;20258;-78
2022/05/08 09:58:33;;;;;;;15.40;14.80;;;;;;;-141.02;100.00;55844.97;5114616;28;20197;-75
2022/05/08 10:01:01;;;;;;;15.43;14.82;;;;;;;-141.02;100.00;55844.97;5113788;28;20246;-76
2022/05/08 10:03:30;;;;;;;15.75;15.15;;;;;;;-141.02;100.00;55844.97;5114500;27;20224;-75
2022/05/08 10:06:00;;;;;;;15.60;15.00;;;;;;;-141.02;100.00;55844.97;5115611;28;20288;-79
2022/05/08 10:08:29;;;;;;;15.43;14.85;;;;;;;-141.02;100.00;55844.97;5114264;28;20232;-81
2022/05/08 10:14:03;;;;;;;15.55;14.95;;;;;;;-141.02;100.00;55844.97;5114965;28;20622;-82
2022/05/08 10:16:51;;;;;;;15.43;14.82;;;;;;;-141.02;100.00;55844.97;5115115;28;20185;-75
2022/05/08 10:19:56;;;;;;;15.77;15.18;;;;;;;-141.02;100.00;55844.97;5116332;28;20251;-75
2022/05/08 10:22:24;;;;;;;15.27;14.77;;;;;;;-141.02;100.00;55844.97;5115252;28;20201;-78
2022/05/08 10:24:56;;;;;;;15.73;15.13;;;;;;;-141.02;100.00;55844.97;5114762;28;20655;-77
2022/05/08 10:27:28;;;;;;;16.20;15.57;;;;;;;-141.02;100.00;55844.97;5114998;28;20199;-76
2022/05/08 10:30:23;;;;;;;15.63;15.02;;;;;;;-141.02;100.00;55844.97;5114750;28;20240;-79
2022/05/08 10:32:52;;;;;;;16.77;16.08;;;;;;;-141.02;100.00;55844.97;5112765;28;20276;-78
2022/05/08 10:35:21;;;;;;;16.77;16.08;;;;;;;-141.02;100.00;55844.97;5115648;27;20677;-78
2022/05/08 10:37:50;;;;;;;15.75;15.15;;;;;;;-141.02;100.00;55844.97;5111648;28;20201;-79
2022/05/08 10:40:34;;;;;;;15.60;15.00;;;;;;;-141.02;100.00;55844.97;5112385;28;20208;-80
2022/05/08 10:43:25;;;;;;;16.17;15.57;;;;;;;-141.02;100.00;55844.97;5112747;28;20655;-81
2022/05/08 10:45:53;;;;;;;15.93;15.32;;;;;;;-141.02;100.00;55844.97;5110993;28;20196;-82
2022/05/08 10:48:25;;;;;;;15.70;15.10;;;;;;;-141.02;100.00;55844.97;5111418;28;20687;-73
2022/05/08 10:50:54;;;;;;;15.48;14.98;;;;;;;-141.02;100.00;55844.97;5120665;27;20617;-78
2022/05/08 10:53:29;;;;;;;15.50;15.00;;;;;;;-141.02;100.00;55844.97;5132653;27;20287;-79
2022/05/08 10:56:04;;;;;;;15.25;14.75;;;;;;;-141.02;100.00;55844.97;5128081;27;20195;-76
2022/05/08 10:58:31;;;;;;;15.07;14.57;;;;;;;-141.02;100.00;55844.97;5112737;28;20207;-79
2022/05/08 11:01:00;;;;;;;14.75;14.25;;;;;;;-141.02;100.00;55844.97;5132835;27;20619;-77
2022/05/08 11:03:29;;;;;;;15.45;14.95;;;;;;;-141.02;100.00;55844.97;5129412;27;20198;-82
2022/05/08 11:05:57;;;;;;;15.48;14.98;;;;;;;-141.02;100.00;55844.97;5098120;28;20193;-74
2022/05/08 11:08:25;;;;;;;15.60;15.05;;;;;;;-141.02;100.00;55844.97;5111989;28;20297;-83
2022/05/08 11:11:02;;;;;;;15.32;14.82;;;;;;;-141.02;100.00;55844.97;5109969;27;20641;-78
2022/05/08 11:13:40;;;;;;;14.98;14.48;;;;;;;-141.02;100.00;55844.97;5111234;27;20189;-78
2022/05/08 11:16:08;;;;;;;15.70;15.10;;;;;;;-141.02;100.00;55844.97;5113114;28;20257;-81
2022/05/08 11:18:36;;;;;;;15.77;15.18;;;;;;;-141.02;100.00;55844.97;5117476;27;20208;-80
2022/05/08 11:21:08;;;;;;;15.48;14.88;;;;;;;-141.02;100.00;55844.97;5118330;27;20197;-80